Time;durP1;ratioP1;P1;durP2;ratioP2;P2;SDS_P1;SDS_P2;PMS_P1;PMS_P2;Temp;Humidity;BMP_temperature;BMP_pressure;BME280_temperature;BME280_humidity;BME280_pressure;Samples;Min_cycle;Max_cycle;Signal;HPM_P1;HPM_P2
2023/04/20 00:01:54;;;;;;;5.57;3.50;;;;;;;;;;5014750;28;20030;-23
2023/04/20 00:04:21;;;;;;;4.30;3.90;;;;;;;;;;5014475;28;20285;-28
2023/04/20 00:06:48;;;;;;;4.10;3.70;;;;;;;;;;5014726;28;20033;-24
2023/04/20 00:09:14;;;;;;;7.68;3.60;;;;;;;;;;5014624;28;20038;-27
2023/04/20 00:11:41;;;;;;;4.22;3.83;;;;;;;;;;5014693;28;20033;-27
2023/04/20 00:14:07;;;;;;;3.67;3.38;;;;;;;;;;5016974;28;20087;-29
2023/04/20 00:16:33;;;;;;;4.03;3.60;;;;;;;;;;5018586;28;20499;-29
2023/04/20 00:19:00;;;;;;;3.72;3.42;;;;;;;;;;5018457;28;20120;-27
2023/04/20 00:21:26;;;;;;;5.10;4.03;;;;;;;;;;5018455;28;20026;-26
2023/04/20 00:23:53;;;;;;;5.35;4.38;;;;;;;;;;5018398;28;20053;-27
2023/04/20 00:26:20;;;;;;;5.13;4.20;;;;;;;;;;5018396;28;20401;-28
2023/04/20 00:28:46;;;;;;;3.80;3.50;;;;;;;;;;5018601;28;20095;-23
2023/04/20 00:31:12;;;;;;;5.25;4.65;;;;;;;;;;5018304;28;20029;-28
2023/04/20 00:33:38;;;;;;;4.57;3.55;;;;;;;;;;5018196;28;20092;-26
2023/04/20 00:36:04;;;;;;;4.03;3.10;;;;;;;;;;5018458;28;20353;-28
2023/04/20 00:38:30;;;;;;;4.32;3.83;;;;;;;;;;5018365;28;20022;-28
2023/04/20 00:40:57;;;;;;;4.72;3.70;;;;;;;;;;5018385;28;20033;-25
2023/04/20 00:43:23;;;;;;;5.65;5.13;;;;;;;;;;5018077;28;20144;-29
2023/04/20 00:45:51;;;;;;;7.82;3.60;;;;;;;;;;5018063;28;20029;-26
2023/04/20 00:48:17;;;;;;;5.10;3.60;;;;;;;;;;5017926;28;20037;-24
2023/04/20 00:50:44;;;;;;;3.58;3.28;;;;;;;;;;5017915;28;20049;-25
2023/04/20 00:53:10;;;;;;;6.28;4.00;;;;;;;;;;5017844;28;20021;-25
2023/04/20 00:55:38;;;;;;;4.15;3.60;;;;;;;;;;5017848;28;20121;-29
2023/04/20 00:58:05;;;;;;;5.72;3.40;;;;;;;;;;5017735;28;20030;-26
2023/04/20 01:00:31;;;;;;;4.93;3.85;;;;;;;;;;5000438;28;20030;-29
2023/04/20 01:02:58;;;;;;;3.20;3.00;;;;;;;;;;5000052;28;20096;-28
2023/04/20 01:05:25;;;;;;;3.50;3.20;;;;;;;;;;5017562;28;20057;-30
2023/04/20 01:07:51;;;;;;;3.38;3.10;;;;;;;;;;5017666;28;20022;-27
2023/04/20 01:10:18;;;;;;;6.93;3.40;;;;;;;;;;5017595;28;20109;-28
2023/04/20 01:12:44;;;;;;;6.00;3.60;;;;;;;;;;5017491;28;20045;-27
2023/04/20 01:15:10;;;;;;;4.35;3.15;;;;;;;;;;5017533;28;20381;-28
2023/04/20 01:17:38;;;;;;;5.80;3.70;;;;;;;;;;5000156;28;20441;-29
2023/04/20 01:20:07;;;;;;;3.80;3.50;;;;;;;;;;5017361;28;20033;-25
2023/04/20 01:22:34;;;;;;;3.88;3.50;;;;;;;;;;5017244;28;20465;-28
2023/04/20 01:25:00;;;;;;;3.85;3.55;;;;;;;;;;5016786;28;20052;-28
2023/04/20 01:27:26;;;;;;;5.15;2.85;;;;;;;;;;5017283;28;20018;-28
2023/04/20 01:29:52;;;;;;;7.75;3.35;;;;;;;;;;5018076;28;20034;-28
2023/04/20 01:32:18;;;;;;;4.45;3.70;;;;;;;;;;5017102;28;20026;-28
2023/04/20 01:34:44;;;;;;;4.60;4.05;;;;;;;;;;5017411;28;20029;-28
2023/04/20 01:37:10;;;;;;;3.75;3.45;;;;;;;;;;5017022;28;20034;-28
2023/04/20 01:39:38;;;;;;;3.25;2.95;;;;;;;;;;5016944;28;20030;-29
2023/04/20 01:42:04;;;;;;;3.45;3.20;;;;;;;;;;5017161;28;20064;-24
2023/04/20 01:44:31;;;;;;;3.67;2.97;;;;;;;;;;4999707;28;20457;-28
2023/04/20 01:46:57;;;;;;;3.08;2.80;;;;;;;;;;5016904;28;20025;-29
2023/04/20 01:49:23;;;;;;;3.58;3.28;;;;;;;;;;5017097;28;20033;-26
2023/04/20 01:51:49;;;;;;;3.78;2.97;;;;;;;;;;5016962;28;20103;-28
2023/04/20 01:54:15;;;;;;;3.70;3.40;;;;;;;;;;5016683;28;20022;-25
2023/04/20 01:56:41;;;;;;;3.15;2.95;;;;;;;;;;5016968;28;20030;-29
2023/04/20 01:59:08;;;;;;;4.80;3.17;;;;;;;;;;5016612;28;20080;-26
2023/04/20 02:01:34;;;;;;;4.93;2.72;;;;;;;;;;5016572;28;20064;-24
2023/04/20 02:04:00;;;;;;;3.92;3.40;;;;;;;;;;5016459;28;20042;-24
2023/04/20 02:06:27;;;;;;;3.40;3.10;;;;;;;;;;5016464;28;20056;-24
2023/04/20 02:08:53;;;;;;;5.72;3.85;;;;;;;;;;5016488;28;20105;-25
2023/04/20 02:11:21;;;;;;;5.65;4.13;;;;;;;;;;5016484;28;20368;-28
2023/04/20 02:13:47;;;;;;;5.60;3.22;;;;;;;;;;5016451;28;20441;-28
2023/04/20 02:16:13;;;;;;;4.70;3.50;;;;;;;;;;5016585;28;20033;-27
2023/04/20 02:18:39;;;;;;;4.30;3.30;;;;;;;;;;5016455;28;20064;-27
2023/04/20 02:21:06;;;;;;;6.97;3.92;;;;;;;;;;5016502;28;20119;-23
2023/04/20 02:23:32;;;;;;;8.05;4.95;;;;;;;;;;5016391;28;20041;-25
2023/04/20 02:25:58;;;;;;;3.83;3.42;;;;;;;;;;5016148;28;20026;-27
2023/04/20 02:28:24;;;;;;;3.63;3.33;;;;;;;;;;5016143;28;20109;-28
2023/04/20 02:30:50;;;;;;;3.67;3.40;;;;;;;;;;5016122;28;20022;-28
2023/04/20 02:33:16;;;;;;;4.10;3.75;;;;;;;;;;5016205;28;20025;-26
2023/04/20 02:35:43;;;;;;;4.82;3.40;;;;;;;;;;5015132;28;20037;-28
2023/04/20 02:38:09;;;;;;;4.07;3.78;;;;;;;;;;5015953;28;20053;-24
2023/04/20 02:40:35;;;;;;;4.60;4.15;;;;;;;;;;5016091;28;20022;-27
2023/04/20 02:43:01;;;;;;;3.35;3.00;;;;;;;;;;5016045;28;20072;-28
2023/04/20 02:45:27;;;;;;;3.22;2.92;;;;;;;;;;4998456;28;20412;-28
2023/04/20 02:47:53;;;;;;;3.35;3.05;;;;;;;;;;5016019;28;20341;-25
2023/04/20 02:50:20;;;;;;;3.28;3.08;;;;;;;;;;5015728;28;20025;-29
2023/04/20 02:52:46;;;;;;;4.72;3.17;;;;;;;;;;5015561;28;20034;-25
2023/04/20 02:55:12;;;;;;;3.42;3.13;;;;;;;;;;5015614;28;20029;-27
2023/04/20 02:57:38;;;;;;;3.58;3.28;;;;;;;;;;5015901;28;20026;-28
2023/04/20 03:00:07;;;;;;;4.25;3.50;;;;;;;;;;5016248;28;20022;-26
2023/04/20 03:02:33;;;;;;;3.58;3.28;;;;;;;;;;5015468;28;20025;-28
2023/04/20 03:04:59;;;;;;;4.35;3.95;;;;;;;;;;5015334;28;20049;-24
2023/04/20 03:07:26;;;;;;;3.35;3.05;;;;;;;;;;5015704;28;20079;-28
2023/04/20 03:09:52;;;;;;;3.95;3.55;;;;;;;;;;4998566;28;20041;-24
2023/04/20 03:12:18;;;;;;;4.05;3.65;;;;;;;;;;5015504;28;20053;-28
2023/04/20 03:14:45;;;;;;;4.90;4.50;;;;;;;;;;5015261;28;20030;-28
2023/04/20 03:17:11;;;;;;;4.30;3.55;;;;;;;;;;5015330;28;20401;-26
2023/04/20 03:19:37;;;;;;;3.40;3.10;;;;;;;;;;5015424;28;20030;-28
2023/04/20 03:22:03;;;;;;;3.03;2.83;;;;;;;;;;5015152;28;20030;-24
2023/04/20 03:24:29;;;;;;;3.42;3.20;;;;;;;;;;5015167;28;20515;-28
2023/04/20 03:26:55;;;;;;;3.85;3.45;;;;;;;;;;5015155;28;20022;-27
2023/04/20 03:29:21;;;;;;;5.10;3.33;;;;;;;;;;5015034;28;20117;-28
2023/04/20 03:31:48;;;;;;;3.38;3.13;;;;;;;;;;5015282;28;20057;-25
2023/04/20 03:34:14;;;;;;;4.50;3.25;;;;;;;;;;5015256;28;20033;-27
2023/04/20 03:36:40;;;;;;;4.63;4.00;;;;;;;;;;5015243;28;20148;-25
2023/04/20 03:39:06;;;;;;;3.20;2.90;;;;;;;;;;5015157;28;20117;-23
2023/04/20 03:41:32;;;;;;;3.70;3.40;;;;;;;;;;5015159;28;20029;-28
2023/04/20 03:43:58;;;;;;;3.90;3.42;;;;;;;;;;5015026;28;20072;-28
2023/04/20 03:46:24;;;;;;;3.50;3.20;;;;;;;;;;5014742;28;20018;-26
2023/04/20 03:48:50;;;;;;;3.60;3.30;;;;;;;;;;5014615;28;20026;-27
2023/04/20 03:51:17;;;;;;;4.28;3.97;;;;;;;;;;5014765;28;20029;-26
2023/04/20 03:53:43;;;;;;;4.00;3.63;;;;;;;;;;5014738;28;20033;-27
2023/04/20 03:56:09;;;;;;;3.65;3.40;;;;;;;;;;5014728;28;20049;-24
2023/04/20 03:58:35;;;;;;;4.10;3.70;;;;;;;;;;5014910;28;20109;-28
2023/04/20 04:01:08;;;;;;;3.53;3.33;;;;;;;;;;5014638;28;20029;-28
2023/04/20 04:03:35;;;;;;;3.40;3.10;;;;;;;;;;5014365;28;20058;-27
2023/04/20 04:06:01;;;;;;;3.55;3.35;;;;;;;;;;5014616;28;20022;-28
2023/04/20 04:08:27;;;;;;;3.17;2.97;;;;;;;;;;5014584;28;20022;-27
2023/04/20 04:10:53;;;;;;;3.83;3.50;;;;;;;;;;5014519;28;20029;-27
2023/04/20 04:13:19;;;;;;;3.45;3.15;;;;;;;;;;5014894;28;20029;-28
2023/04/20 04:15:45;;;;;;;3.38;3.15;;;;;;;;;;5014683;28;20049;-27
2023/04/20 04:18:11;;;;;;;4.30;3.90;;;;;;;;;;5014362;28;20145;-28
2023/04/20 04:20:38;;;;;;;3.30;3.03;;;;;;;;;;5014699;28;20413;-27
2023/04/20 04:23:05;;;;;;;4.15;3.30;;;;;;;;;;5014623;28;20485;-25
2023/04/20 04:25:32;;;;;;;2.97;2.75;;;;;;;;;;5013872;28;20038;-28
2023/04/20 04:27:58;;;;;;;3.85;3.55;;;;;;;;;;4996962;28;20026;-26
2023/04/20 04:30:26;;;;;;;3.25;2.95;;;;;;;;;;5014365;28;20040;-26
2023/04/20 04:32:52;;;;;;;3.53;3.22;;;;;;;;;;5014475;28;20369;-25
2023/04/20 04:35:18;;;;;;;3.45;3.15;;;;;;;;;;4996887;28;20339;-26
2023/04/20 04:37:45;;;;;;;4.07;3.67;;;;;;;;;;4996840;28;20113;-26
2023/04/20 04:40:11;;;;;;;3.70;3.40;;;;;;;;;;5013948;28;20044;-25
2023/04/20 04:42:37;;;;;;;3.58;3.28;;;;;;;;;;5014344;28;20050;-36
2023/04/20 04:45:04;;;;;;;3.50;3.30;;;;;;;;;;5014169;28;20072;-23
2023/04/20 04:47:34;;;;;;;3.67;3.38;;;;;;;;;;5014029;28;20018;-27
2023/04/20 04:50:02;;;;;;;3.80;3.50;;;;;;;;;;5014474;28;20040;-28
2023/04/20 04:52:28;;;;;;;4.32;3.97;;;;;;;;;;5013959;28;20029;-28
2023/04/20 04:54:54;;;;;;;3.28;3.08;;;;;;;;;;4996876;28;20457;-29
2023/04/20 04:57:20;;;;;;;4.07;3.78;;;;;;;;;;5014017;28;20368;-28
2023/04/20 04:59:46;;;;;;;5.75;3.60;;;;;;;;;;5015368;28;20092;-28
2023/04/20 05:02:12;;;;;;;3.00;2.80;;;;;;;;;;4999913;28;20124;-26
2023/04/20 05:04:38;;;;;;;7.25;3.33;;;;;;;;;;5017135;28;20396;-24
2023/04/20 05:07:05;;;;;;;3.22;2.92;;;;;;;;;;5017257;28;20084;-25
2023/04/20 05:09:32;;;;;;;3.53;3.20;;;;;;;;;;4999987;28;20026;-25
2023/04/20 05:12:02;;;;;;;4.25;3.25;;;;;;;;;;5017223;28;20087;-27
2023/04/20 05:14:30;;;;;;;3.50;3.00;;;;;;;;;;4999907;28;20021;-27
2023/04/20 05:16:56;;;;;;;13.68;3.63;;;;;;;;;;5017384;28;20026;-28
2023/04/20 05:19:22;;;;;;;3.28;3.08;;;;;;;;;;5016921;28;20026;-28
2023/04/20 05:21:48;;;;;;;6.10;3.35;;;;;;;;;;5017310;28;20021;-26
2023/04/20 05:24:16;;;;;;;3.78;3.38;;;;;;;;;;5017104;28;20054;-28
2023/04/20 05:26:42;;;;;;;4.63;3.15;;;;;;;;;;4999791;28;20076;-27
2023/04/20 05:29:09;;;;;;;4.93;3.78;;;;;;;;;;5016992;28;20029;-28
2023/04/20 05:31:35;;;;;;;3.78;3.47;;;;;;;;;;5017242;28;20026;-28
2023/04/20 05:34:01;;;;;;;4.82;3.33;;;;;;;;;;5016818;28;20022;-25
2023/04/20 05:36:28;;;;;;;3.92;3.22;;;;;;;;;;5017221;28;20049;-27
2023/04/20 05:38:55;;;;;;;3.88;2.92;;;;;;;;;;5016750;28;20097;-28
2023/04/20 05:41:26;;;;;;;4.35;3.17;;;;;;;;;;5016602;28;20049;-26
2023/04/20 05:43:52;;;;;;;;;;;;;;;;;;5017130;28;20109;-26
2023/04/20 05:46:18;;;;;;;5.22;3.83;;;;;;;;;;5016573;28;19936;-28
2023/04/20 05:48:44;;;;;;;3.28;2.97;;;;;;;;;;5017061;28;20097;-28
2023/04/20 05:51:11;;;;;;;3.67;3.35;;;;;;;;;;5016824;28;20041;-27
2023/04/20 05:53:37;;;;;;;4.93;3.00;;;;;;;;;;5016663;28;20089;-35
2023/04/20 05:56:03;;;;;;;8.93;3.10;;;;;;;;;;5016751;28;20178;-26
2023/04/20 05:58:31;;;;;;;4.10;2.97;;;;;;;;;;5016561;28;20018;-26
2023/04/20 06:03:33;;;;;;;3.70;3.40;;;;;;;;;;5335881;22;20439;-28
2023/04/20 06:05:59;;;;;;;3.05;2.85;;;;;;;;;;5076288;28;20032;-30
2023/04/20 06:08:25;;;;;;;9.68;3.80;;;;;;;;;;5076394;28;20051;-32
2023/04/20 06:10:56;;;;;;;7.88;3.90;;;;;;;;;;5075975;28;20032;-31
2023/04/20 06:13:22;;;;;;;3.53;3.23;;;;;;;;;;5075933;28;20029;-28
2023/04/20 06:15:48;;;;;;;4.80;3.05;;;;;;;;;;5057921;28;20024;-26
2023/04/20 06:18:14;;;;;;;3.80;3.35;;;;;;;;;;5075745;28;20039;-28
2023/04/20 06:20:42;;;;;;;9.30;3.75;;;;;;;;;;5076115;28;20025;-31
2023/04/20 06:23:09;;;;;;;5.00;3.10;;;;;;;;;;5075982;28;20382;-26
2023/04/20 06:25:36;;;;;;;4.43;3.05;;;;;;;;;;5076084;28;20028;-28
2023/04/20 06:28:03;;;;;;;3.25;2.95;;;;;;;;;;5075998;28;20386;-27
2023/04/20 06:30:29;;;;;;;5.57;3.25;;;;;;;;;;5075972;28;20440;-27
2023/04/20 06:32:55;;;;;;;6.63;3.33;;;;;;;;;;5075857;28;20028;-27
2023/04/20 06:35:22;;;;;;;5.82;3.83;;;;;;;;;;5076160;28;20025;-28
2023/04/20 06:37:48;;;;;;;4.40;4.00;;;;;;;;;;5075317;28;20028;-30
2023/04/20 06:40:15;;;;;;;4.53;3.55;;;;;;;;;;5075173;28;20039;-29
2023/04/20 06:42:41;;;;;;;4.57;4.28;;;;;;;;;;5075833;28;20142;-30
2023/04/20 06:45:07;;;;;;;3.42;3.17;;;;;;;;;;5075564;28;20024;-29
2023/04/20 06:47:34;;;;;;;4.78;3.67;;;;;;;;;;5075283;28;20085;-28
2023/04/20 06:50:01;;;;;;;6.32;3.72;;;;;;;;;;5075087;28;20035;-29
2023/04/20 06:52:27;;;;;;;6.70;4.18;;;;;;;;;;5074989;28;20164;-29
2023/04/20 06:54:54;;;;;;;3.70;3.40;;;;;;;;;;5075035;28;20165;-27
2023/04/20 06:57:20;;;;;;;5.10;3.40;;;;;;;;;;5074899;28;20061;-27
2023/04/20 06:59:46;;;;;;;5.85;3.45;;;;;;;;;;5075167;28;20031;-27
2023/04/20 07:02:12;;;;;;;6.40;4.07;;;;;;;;;;5075006;28;20410;-29
2023/04/20 07:04:38;;;;;;;9.95;3.33;;;;;;;;;;5075460;28;20024;-29
2023/04/20 07:07:04;;;;;;;6.85;3.53;;;;;;;;;;5075045;28;20103;-29
2023/04/20 07:09:30;;;;;;;8.65;3.80;;;;;;;;;;5074921;28;20020;-30
2023/04/20 07:11:57;;;;;;;13.52;3.83;;;;;;;;;;5074979;28;20031;-29
2023/04/20 07:14:23;;;;;;;6.18;3.05;;;;;;;;;;5074689;28;20035;-27
2023/04/20 07:16:53;;;;;;;11.18;3.10;;;;;;;;;;5074534;28;20355;-29
2023/04/20 07:19:19;;;;;;;6.97;3.50;;;;;;;;;;5074808;28;20028;-30
2023/04/20 07:21:45;;;;;;;7.38;3.17;;;;;;;;;;5073871;28;20021;-31
2023/04/20 07:24:11;;;;;;;4.20;3.20;;;;;;;;;;5074504;28;20047;-29
2023/04/20 07:26:38;;;;;;;7.82;3.53;;;;;;;;;;5056894;28;20028;-27
2023/04/20 07:29:04;;;;;;;6.53;3.25;;;;;;;;;;5074437;28;20433;-27
2023/04/20 07:31:30;;;;;;;8.98;3.63;;;;;;;;;;5074661;28;20024;-28
2023/04/20 07:33:56;;;;;;;11.02;6.63;;;;;;;;;;5056842;28;20457;-27
2023/04/20 07:36:22;;;;;;;5.97;3.10;;;;;;;;;;5074474;28;20028;-32
2023/04/20 07:38:49;;;;;;;12.65;3.50;;;;;;;;;;5074595;28;20354;-29
2023/04/20 07:41:15;;;;;;;7.18;3.33;;;;;;;;;;5074424;28;20447;-30
2023/04/20 07:43:41;;;;;;;5.25;3.28;;;;;;;;;;5056737;28;20447;-27
2023/04/20 07:46:07;;;;;;;8.27;3.40;;;;;;;;;;5074253;28;20021;-28
2023/04/20 07:48:34;;;;;;;7.97;3.72;;;;;;;;;;5074593;28;20021;-29
2023/04/20 07:51:00;;;;;;;6.07;3.22;;;;;;;;;;5074335;28;20029;-27
2023/04/20 07:53:27;;;;;;;6.43;3.95;;;;;;;;;;5074283;28;20024;-27
2023/04/20 07:55:53;;;;;;;4.43;3.67;;;;;;;;;;5074468;28;20028;-27
2023/04/20 07:58:20;;;;;;;6.97;3.53;;;;;;;;;;5074144;28;20091;-28
2023/04/20 08:00:47;;;;;;;4.85;3.40;;;;;;;;;;5074304;28;20094;-27
2023/04/20 08:03:13;;;;;;;5.43;3.83;;;;;;;;;;5073896;28;20120;-27
2023/04/20 08:05:39;;;;;;;4.18;2.70;;;;;;;;;;5074131;28;20094;-27
2023/04/20 08:08:06;;;;;;;4.18;3.15;;;;;;;;;;5074371;28;20088;-29
2023/04/20 08:10:32;;;;;;;3.80;3.47;;;;;;;;;;5074403;28;20086;-27
2023/04/20 08:12:58;;;;;;;6.00;3.88;;;;;;;;;;5074055;28;20089;-30
2023/04/20 08:15:24;;;;;;;4.53;3.40;;;;;;;;;;5074403;28;20362;-29
2023/04/20 08:17:51;;;;;;;5.05;3.50;;;;;;;;;;5073985;28;20086;-29
2023/04/20 08:20:18;;;;;;;3.55;3.10;;;;;;;;;;5074305;28;20381;-28
2023/04/20 08:22:44;;;;;;;5.50;3.38;;;;;;;;;;5073901;28;20024;-28
2023/04/20 08:25:10;;;;;;;8.23;3.90;;;;;;;;;;5073941;28;20092;-27
2023/04/20 08:27:36;;;;;;;6.47;3.20;;;;;;;;;;5074733;28;20515;-27
2023/04/20 08:30:07;;;;;;;6.43;4.45;;;;;;;;;;5074246;28;20028;-29
2023/04/20 08:32:33;;;;;;;9.32;4.22;;;;;;;;;;5074491;28;20040;-29
2023/04/20 08:34:59;;;;;;;7.70;3.72;;;;;;;;;;5076105;28;20509;-28
2023/04/20 08:37:26;;;;;;;4.22;3.80;;;;;;;;;;5077753;28;20122;-29
2023/04/20 08:39:52;;;;;;;6.82;3.35;;;;;;;;;;5077504;28;20082;-27
2023/04/20 08:42:18;;;;;;;5.95;3.45;;;;;;;;;;5078008;28;20320;-27
2023/04/20 08:44:44;;;;;;;5.47;3.13;;;;;;;;;;5077898;28;20047;-26
2023/04/20 08:47:11;;;;;;;5.47;3.63;;;;;;;;;;5059987;28;20046;-29
2023/04/20 08:49:38;;;;;;;4.15;3.80;;;;;;;;;;5060056;28;20375;-30
2023/04/20 08:52:05;;;;;;;8.80;3.78;;;;;;;;;;5077504;28;20024;-30
2023/04/20 08:54:31;;;;;;;7.68;2.95;;;;;;;;;;5077855;28;20020;-28
2023/04/20 08:56:58;;;;;;;7.95;3.30;;;;;;;;;;5077465;28;20029;-30
2023/04/20 08:59:25;;;;;;;5.43;3.08;;;;;;;;;;5077652;28;20024;-29
2023/04/20 09:01:51;;;;;;;9.00;3.80;;;;;;;;;;5077223;28;20099;-29
2023/04/20 09:04:25;;;;;;;5.30;3.28;;;;;;;;;;5077412;28;20053;-31
2023/04/20 09:06:52;;;;;;;6.68;3.35;;;;;;;;;;5077267;28;20024;-26
2023/04/20 09:09:19;;;;;;;6.30;2.97;;;;;;;;;;5077278;28;20024;-26
2023/04/20 09:11:46;;;;;;;5.85;4.35;;;;;;;;;;5077217;28;20036;-27
2023/04/20 09:14:13;;;;;;;7.65;3.53;;;;;;;;;;5077436;28;20104;-27
2023/04/20 09:16:55;;;;;;;5.03;3.75;;;;;;;;;;5078043;28;20067;-27
2023/04/20 09:19:25;;;;;;;3.20;3.00;;;;;;;;;;5077439;28;20025;-26
2023/04/20 09:21:51;;;;;;;7.05;4.07;;;;;;;;;;5059282;28;20364;-28
2023/04/20 09:24:19;;;;;;;5.53;3.05;;;;;;;;;;5077270;28;20020;-30
2023/04/20 09:26:46;;;;;;;4.07;3.30;;;;;;;;;;5076777;28;20474;-29
2023/04/20 09:29:22;;;;;;;7.85;3.20;;;;;;;;;;5076632;28;20020;-30
2023/04/20 09:31:48;;;;;;;5.20;3.20;;;;;;;;;;5076612;28;20024;-29
2023/04/20 09:34:15;;;;;;;7.00;3.47;;;;;;;;;;5076940;28;20032;-31
2023/04/20 09:36:42;;;;;;;3.92;3.40;;;;;;;;;;5058953;28;20089;-31
2023/04/20 09:39:18;;;;;;;7.65;3.42;;;;;;;;;;5076647;28;20117;-28
2023/04/20 09:41:45;;;;;;;6.28;3.08;;;;;;;;;;5059270;28;20031;-28
2023/04/20 09:44:11;;;;;;;10.68;3.17;;;;;;;;;;5076612;28;20051;-28
2023/04/20 09:46:39;;;;;;;5.43;2.88;;;;;;;;;;5076448;28;20020;-28
2023/04/20 09:49:06;;;;;;;7.03;3.28;;;;;;;;;;5076421;28;20032;-30
2023/04/20 09:51:37;;;;;;;6.28;3.75;;;;;;;;;;5058761;28;20037;-29
2023/04/20 09:54:04;;;;;;;4.30;3.35;;;;;;;;;;5076162;28;20462;-29
2023/04/20 09:56:31;;;;;;;5.93;2.95;;;;;;;;;;5059167;28;20028;-30
2023/04/20 09:58:57;;;;;;;7.60;3.03;;;;;;;;;;5076031;28;20035;-26
2023/04/20 10:01:24;;;;;;;7.45;3.53;;;;;;;;;;5076214;28;20044;-28
2023/04/20 10:03:52;;;;;;;4.03;3.50;;;;;;;;;;5076361;28;20040;-26
2023/04/20 10:06:29;;;;;;;10.48;3.25;;;;;;;;;;5075913;28;20055;-29
2023/04/20 10:08:56;;;;;;;4.97;3.17;;;;;;;;;;5075929;28;20459;-28
2023/04/20 10:11:25;;;;;;;9.52;3.03;;;;;;;;;;5075883;28;20036;-28
2023/04/20 10:13:51;;;;;;;6.55;3.35;;;;;;;;;;5058180;28;20025;-30
2023/04/20 10:16:18;;;;;;;4.03;3.15;;;;;;;;;;5075855;28;20024;-30
2023/04/20 10:18:55;;;;;;;5.10;3.20;;;;;;;;;;5075753;28;20032;-28
2023/04/20 10:21:21;;;;;;;5.22;3.28;;;;;;;;;;5059007;28;20106;-30
2023/04/20 10:23:49;;;;;;;6.50;3.78;;;;;;;;;;5076449;28;20112;-29
2023/04/20 10:26:15;;;;;;;10.80;3.17;;;;;;;;;;5076167;28;20447;-28
2023/04/20 10:28:43;;;;;;;3.30;3.00;;;;;;;;;;5076028;28;20028;-30
2023/04/20 10:31:14;;;;;;;4.35;3.08;;;;;;;;;;5076684;28;20032;-27
2023/04/20 10:33:50;;;;;;;6.85;4.07;;;;;;;;;;5076432;28;20024;-29
2023/04/20 10:36:23;;;;;;;4.95;2.80;;;;;;;;;;5075516;28;20025;-28
2023/04/20 10:38:51;;;;;;;6.38;3.50;;;;;;;;;;5075603;28;20361;-29
2023/04/20 10:41:17;;;;;;;4.63;3.33;;;;;;;;;;5075365;28;20016;-25
2023/04/20 10:43:43;;;;;;;4.63;3.13;;;;;;;;;;5075254;28;20020;-29
2023/04/20 10:46:35;;;;;;;4.07;3.55;;;;;;;;;;5075367;28;20037;-28
2023/04/20 10:49:02;;;;;;;6.75;3.17;;;;;;;;;;5054724;28;20174;-28
2023/04/20 10:51:29;;;;;;;4.80;3.10;;;;;;;;;;5075205;28;20020;-27
2023/04/20 10:53:59;;;;;;;7.05;3.28;;;;;;;;;;5075026;28;20458;-28
2023/04/20 10:56:26;;;;;;;5.95;2.92;;;;;;;;;;5074984;28;20524;-26
2023/04/20 10:58:52;;;;;;;6.00;2.75;;;;;;;;;;5074809;28;20470;-31
2023/04/20 11:01:18;;;;;;;4.43;3.20;;;;;;;;;;5075046;28;20035;-29
2023/04/20 11:03:50;;;;;;;5.35;3.08;;;;;;;;;;5074784;28;20076;-29
2023/04/20 11:06:17;;;;;;;7.50;3.22;;;;;;;;;;5074971;28;20024;-29
2023/04/20 11:08:43;;;;;;;6.25;3.33;;;;;;;;;;5075385;28;20343;-29
2023/04/20 11:11:19;;;;;;;11.43;3.30;;;;;;;;;;5075186;28;20016;-28
2023/04/20 11:13:46;;;;;;;4.47;2.80;;;;;;;;;;5074684;28;20058;-26
2023/04/20 11:16:13;;;;;;;7.40;3.28;;;;;;;;;;5074991;28;20028;-28
2023/04/20 11:18:50;;;;;;;5.70;3.30;;;;;;;;;;5057196;28;20066;-27
2023/04/20 11:21:16;;;;;;;4.43;3.38;;;;;;;;;;5074832;28;20111;-27
2023/04/20 11:23:43;;;;;;;8.35;3.35;;;;;;;;;;5074575;28;20058;-28
2023/04/20 11:26:10;;;;;;;9.60;3.83;;;;;;;;;;5074600;28;20045;-30
2023/04/20 11:28:36;;;;;;;3.28;2.58;;;;;;;;;;5074849;28;20028;-29
2023/04/20 11:31:03;;;;;;;3.70;3.17;;;;;;;;;;5056885;28;20031;-29
2023/04/20 11:33:30;;;;;;;5.45;3.53;;;;;;;;;;5056794;28;20033;-28
2023/04/20 11:35:57;;;;;;;3.13;2.80;;;;;;;;;;5074872;28;20067;-30
2023/04/20 11:38:30;;;;;;;6.97;3.35;;;;;;;;;;5074820;28;20021;-27
2023/04/20 11:40:57;;;;;;;5.97;3.13;;;;;;;;;;5074674;28;20093;-31
2023/04/20 11:43:24;;;;;;;5.80;2.85;;;;;;;;;;5074320;28;20032;-29
2023/04/20 11:45:50;;;;;;;8.50;3.10;;;;;;;;;;5074416;28;20111;-30
2023/04/20 11:48:17;;;;;;;8.10;3.10;;;;;;;;;;5074719;28;20391;-31
2023/04/20 11:50:44;;;;;;;9.15;3.50;;;;;;;;;;5074649;28;20028;-33
2023/04/20 11:53:13;;;;;;;7.03;3.30;;;;;;;;;;5074551;28;20435;-29
2023/04/20 11:55:40;;;;;;;7.25;3.10;;;;;;;;;;5074908;28;20021;-27
2023/04/20 11:58:07;;;;;;;7.13;3.10;;;;;;;;;;5075152;28;20021;-27
2023/04/20 12:00:33;;;;;;;6.35;3.47;;;;;;;;;;5074439;28;20028;-25
2023/04/20 12:03:00;;;;;;;8.75;3.88;;;;;;;;;;5073960;28;20064;-28
2023/04/20 12:05:27;;;;;;;4.50;3.42;;;;;;;;;;5074639;28;20020;-28
2023/04/20 12:07:53;;;;;;;5.93;3.22;;;;;;;;;;5074526;28;20028;-27
2023/04/20 12:10:20;;;;;;;7.38;3.40;;;;;;;;;;5078176;28;20478;-30
2023/04/20 12:12:46;;;;;;;9.98;2.75;;;;;;;;;;5078301;28;20021;-29
2023/04/20 12:15:12;;;;;;;12.85;3.80;;;;;;;;;;5078024;28;20405;-28
2023/04/20 12:17:38;;;;;;;5.75;3.00;;;;;;;;;;5078278;28;20056;-29
2023/04/20 12:20:08;;;;;;;4.35;2.45;;;;;;;;;;5077900;28;20031;-30
2023/04/20 12:22:34;;;;;;;9.13;3.40;;;;;;;;;;5078188;28;20075;-29
2023/04/20 12:25:00;;;;;;;6.88;2.97;;;;;;;;;;5078373;28;20096;-30
2023/04/20 12:27:26;;;;;;;6.57;3.22;;;;;;;;;;5078261;28;20017;-29
2023/04/20 12:29:53;;;;;;;5.75;3.72;;;;;;;;;;5077970;28;20099;-30
2023/04/20 12:32:19;;;;;;;10.70;3.40;;;;;;;;;;5077830;28;20391;-27
2023/04/20 12:34:45;;;;;;;7.40;2.97;;;;;;;;;;5077839;28;20048;-30
2023/04/20 12:37:11;;;;;;;4.82;3.00;;;;;;;;;;5060169;28;20123;-29
2023/04/20 12:39:39;;;;;;;5.85;3.42;;;;;;;;;;5077932;28;20103;-27
2023/04/20 12:42:06;;;;;;;10.55;3.45;;;;;;;;;;5077590;28;20063;-27
2023/04/20 12:44:32;;;;;;;4.00;2.95;;;;;;;;;;5060091;28;20124;-30
2023/04/20 12:46:58;;;;;;;5.15;2.92;;;;;;;;;;5077626;28;20034;-29
2023/04/20 12:49:24;;;;;;;8.98;3.88;;;;;;;;;;5077481;28;20052;-30
2023/04/20 12:51:50;;;;;;;10.48;2.90;;;;;;;;;;5077683;28;20036;-28
2023/04/20 12:54:16;;;;;;;4.13;3.05;;;;;;;;;;5077640;28;20028;-29
2023/04/20 12:56:43;;;;;;;6.53;3.60;;;;;;;;;;5077440;28;20021;-28
2023/04/20 12:59:10;;;;;;;5.57;2.72;;;;;;;;;;5077454;28;20348;-30
2023/04/20 13:01:36;;;;;;;8.02;3.10;;;;;;;;;;5077169;28;20108;-27
2023/04/20 13:04:02;;;;;;;7.53;3.13;;;;;;;;;;5076920;28;20044;-31
2023/04/20 13:06:28;;;;;;;7.15;3.95;;;;;;;;;;5077064;28;20071;-30
2023/04/20 13:08:54;;;;;;;9.25;3.63;;;;;;;;;;5077100;28;20035;-30
2023/04/20 13:11:20;;;;;;;4.85;3.17;;;;;;;;;;5077398;28;20321;-31
2023/04/20 13:13:47;;;;;;;5.72;2.90;;;;;;;;;;5077021;28;20078;-29
2023/04/20 13:16:13;;;;;;;4.88;3.05;;;;;;;;;;5077084;28;20024;-27
2023/04/20 13:18:39;;;;;;;7.60;3.58;;;;;;;;;;5059315;28;20332;-25
2023/04/20 13:21:05;;;;;;;5.95;2.95;;;;;;;;;;5076418;28;20024;-31
2023/04/20 13:23:31;;;;;;;4.32;3.22;;;;;;;;;;5059426;28;20021;-29
2023/04/20 13:26:00;;;;;;;7.97;3.40;;;;;;;;;;5076777;28;20431;-30
2023/04/20 13:28:26;;;;;;;9.25;3.35;;;;;;;;;;5076728;28;20099;-28
2023/04/20 13:30:54;;;;;;;9.48;2.90;;;;;;;;;;5060230;28;20074;-29
2023/04/20 13:33:20;;;;;;;5.55;3.42;;;;;;;;;;5059053;28;20039;-28
2023/04/20 13:35:46;;;;;;;8.13;2.83;;;;;;;;;;5077177;28;20346;-27
2023/04/20 13:38:12;;;;;;;6.15;3.22;;;;;;;;;;5058988;28;20025;-29
2023/04/20 13:40:39;;;;;;;4.30;3.13;;;;;;;;;;5076460;28;20024;-32
2023/04/20 13:43:05;;;;;;;7.38;3.40;;;;;;;;;;5076562;28;20031;-30
2023/04/20 13:45:31;;;;;;;5.93;2.53;;;;;;;;;;5076423;28;20035;-29
2023/04/20 13:47:57;;;;;;;7.57;4.15;;;;;;;;;;5076448;28;20469;-27
2023/04/20 13:50:24;;;;;;;9.77;4.63;;;;;;;;;;5076249;28;20035;-27
2023/04/20 13:52:50;;;;;;;6.75;3.28;;;;;;;;;;5076380;28;20025;-27
2023/04/20 13:55:19;;;;;;;5.15;3.05;;;;;;;;;;5076576;28;20451;-29
2023/04/20 13:57:45;;;;;;;4.18;2.83;;;;;;;;;;5076572;28;20408;-28
2023/04/20 14:00:11;;;;;;;6.60;2.78;;;;;;;;;;5076558;28;20115;-27
2023/04/20 14:02:37;;;;;;;6.28;2.95;;;;;;;;;;5076074;28;20040;-27
2023/04/20 14:05:05;;;;;;;3.53;3.10;;;;;;;;;;5058627;28;20357;-27
2023/04/20 14:07:31;;;;;;;5.18;2.90;;;;;;;;;;5076225;28;20023;-28
2023/04/20 14:09:58;;;;;;;5.35;3.10;;;;;;;;;;5076628;28;20100;-28
2023/04/20 14:12:26;;;;;;;4.72;2.63;;;;;;;;;;5058393;28;20062;-28
2023/04/20 14:14:52;;;;;;;6.20;2.88;;;;;;;;;;5059009;28;20020;-26
2023/04/20 14:17:18;;;;;;;5.78;3.10;;;;;;;;;;5076401;28;20028;-27
2023/04/20 14:19:44;;;;;;;4.85;3.50;;;;;;;;;;5076316;28;20033;-31
2023/04/20 14:22:10;;;;;;;4.70;3.35;;;;;;;;;;5075814;28;20020;-32
2023/04/20 14:24:37;;;;;;;4.93;2.88;;;;;;;;;;5076132;28;20028;-28
2023/04/20 14:27:03;;;;;;;9.82;3.10;;;;;;;;;;5058148;28;20032;-29
2023/04/20 14:29:29;;;;;;;7.20;2.90;;;;;;;;;;5075761;28;20024;-26
2023/04/20 14:31:55;;;;;;;5.97;2.67;;;;;;;;;;5074804;28;20025;-27
2023/04/20 14:34:21;;;;;;;9.10;3.05;;;;;;;;;;5075434;28;20032;-28
2023/04/20 14:36:48;;;;;;;5.57;3.35;;;;;;;;;;5075393;28;20051;-29
2023/04/20 14:39:14;;;;;;;4.78;2.90;;;;;;;;;;5075644;28;20328;-30
2023/04/20 14:41:40;;;;;;;5.75;2.90;;;;;;;;;;5075774;28;20447;-30
2023/04/20 14:44:06;;;;;;;8.90;3.08;;;;;;;;;;5075336;28;20028;-28